sensor_id;sensor_type;location;lat;lon;timestamp;P1;durP1;ratioP1;P2;durP2;ratioP2
13975;SDS011;7062;49.792;9.946;2022-09-16T00:00:50;9.60;;;3.80;;
13975;SDS011;7062;49.792;9.946;2022-09-16T00:03:16;4.87;;;3.30;;
13975;SDS011;7062;49.792;9.946;2022-09-16T00:05:42;7.07;;;3.50;;
13975;SDS011;7062;49.792;9.946;2022-09-16T00:08:10;5.03;;;3.67;;
13975;SDS011;7062;49.792;9.946;2022-09-16T00:10:36;3.87;;;3.47;;
13975;SDS011;7062;49.792;9.946;2022-09-16T00:13:02;4.77;;;3.47;;
13975;SDS011;7062;49.792;9.946;2022-09-16T00:15:29;3.67;;;3.37;;
13975;SDS011;7062;49.792;9.946;2022-09-16T00:17:54;5.67;;;2.87;;
13975;SDS011;7062;49.792;9.946;2022-09-16T00:20:20;8.57;;;4.27;;
13975;SDS011;7062;49.792;9.946;2022-09-16T00:22:46;3.73;;;3.43;;
13975;SDS011;7062;49.792;9.946;2022-09-16T00:25:11;4.27;;;3.60;;
13975;SDS011;7062;49.792;9.946;2022-09-16T00:27:37;4.30;;;3.90;;
13975;SDS011;7062;49.792;9.946;2022-09-16T00:30:03;4.57;;;3.30;;
13975;SDS011;7062;49.792;9.946;2022-09-16T00:32:29;5.77;;;3.33;;
13975;SDS011;7062;49.792;9.946;2022-09-16T00:34:54;3.93;;;3.37;;
13975;SDS011;7062;49.792;9.946;2022-09-16T00:37:20;6.73;;;3.63;;
13975;SDS011;7062;49.792;9.946;2022-09-16T00:39:48;5.77;;;3.33;;
13975;SDS011;7062;49.792;9.946;2022-09-16T00:42:15;5.13;;;3.53;;
13975;SDS011;7062;49.792;9.946;2022-09-16T00:45:02;7.97;;;3.37;;
13975;SDS011;7062;49.792;9.946;2022-09-16T00:50:02;3.67;;;3.37;;
13975;SDS011;7062;49.792;9.946;2022-09-16T00:52:32;3.67;;;3.27;;
13975;SDS011;7062;49.792;9.946;2022-09-16T00:54:59;5.13;;;3.90;;
13975;SDS011;7062;49.792;9.946;2022-09-16T00:57:30;4.83;;;3.50;;
13975;SDS011;7062;49.792;9.946;2022-09-16T00:59:56;4.50;;;3.30;;
13975;SDS011;7062;49.792;9.946;2022-09-16T01:02:24;4.37;;;3.27;;
13975;SDS011;7062;49.792;9.946;2022-09-16T01:05:10;4.53;;;3.07;;
13975;SDS011;7062;49.792;9.946;2022-09-16T01:07:42;5.00;;;3.30;;
13975;SDS011;7062;49.792;9.946;2022-09-16T01:10:19;7.30;;;3.07;;
13975;SDS011;7062;49.792;9.946;2022-09-16T01:12:48;5.50;;;3.20;;
13975;SDS011;7062;49.792;9.946;2022-09-16T01:15:18;4.77;;;2.80;;
13975;SDS011;7062;49.792;9.946;2022-09-16T01:31:52;5.43;;;3.33;;
13975;SDS011;7062;49.792;9.946;2022-09-16T01:39:51;3.83;;;2.90;;
13975;SDS011;7062;49.792;9.946;2022-09-16T01:58:09;2.63;;;2.40;;
13975;SDS011;7062;49.792;9.946;2022-09-16T02:00:45;5.10;;;2.10;;
13975;SDS011;7062;49.792;9.946;2022-09-16T02:03:17;4.87;;;2.60;;
13975;SDS011;7062;49.792;9.946;2022-09-16T02:08:26;7.17;;;3.13;;
13975;SDS011;7062;49.792;9.946;2022-09-16T02:10:58;2.57;;;2.00;;
13975;SDS011;7062;49.792;9.946;2022-09-16T02:13:27;6.47;;;2.50;;
13975;SDS011;7062;49.792;9.946;2022-09-16T02:15:58;3.93;;;2.47;;
13975;SDS011;7062;49.792;9.946;2022-09-16T02:18:29;5.57;;;2.90;;
13975;SDS011;7062;49.792;9.946;2022-09-16T02:20:59;4.83;;;2.20;;
13975;SDS011;7062;49.792;9.946;2022-09-16T02:23:30;3.33;;;2.30;;
13975;SDS011;7062;49.792;9.946;2022-09-16T02:25:59;4.70;;;2.70;;
13975;SDS011;7062;49.792;9.946;2022-09-16T02:28:29;3.73;;;1.90;;
13975;SDS011;7062;49.792;9.946;2022-09-16T02:31:00;5.63;;;3.03;;
13975;SDS011;7062;49.792;9.946;2022-09-16T02:33:30;3.83;;;2.33;;
13975;SDS011;7062;49.792;9.946;2022-09-16T02:36:00;3.33;;;2.03;;
13975;SDS011;7062;49.792;9.946;2022-09-16T02:38:29;5.13;;;2.33;;
13975;SDS011;7062;49.792;9.946;2022-09-16T02:41:00;6.23;;;2.27;;
13975;SDS011;7062;49.792;9.946;2022-09-16T02:43:27;5.57;;;2.07;;
13975;SDS011;7062;49.792;9.946;2022-09-16T02:48:20;5.20;;;2.50;;
13975;SDS011;7062;49.792;9.946;2022-09-16T02:51:10;5.53;;;2.40;;
13975;SDS011;7062;49.792;9.946;2022-09-16T02:56:48;4.90;;;2.03;;
13975;SDS011;7062;49.792;9.946;2022-09-16T02:59:14;3.97;;;1.50;;
13975;SDS011;7062;49.792;9.946;2022-09-16T03:01:42;6.13;;;1.83;;
13975;SDS011;7062;49.792;9.946;2022-09-16T03:04:09;4.33;;;1.77;;
13975;SDS011;7062;49.792;9.946;2022-09-16T03:06:39;5.60;;;1.80;;
13975;SDS011;7062;49.792;9.946;2022-09-16T03:09:07;2.53;;;1.83;;
13975;SDS011;7062;49.792;9.946;2022-09-16T03:28:04;4.37;;;1.60;;
13975;SDS011;7062;49.792;9.946;2022-09-16T03:31:10;3.80;;;1.90;;
13975;SDS011;7062;49.792;9.946;2022-09-16T03:33:42;3.60;;;1.53;;
13975;SDS011;7062;49.792;9.946;2022-09-16T03:36:19;4.43;;;1.70;;
13975;SDS011;7062;49.792;9.946;2022-09-16T03:38:51;5.23;;;1.50;;
13975;SDS011;7062;49.792;9.946;2022-09-16T03:41:18;5.87;;;2.50;;
13975;SDS011;7062;49.792;9.946;2022-09-16T03:43:54;2.30;;;1.80;;
13975;SDS011;7062;49.792;9.946;2022-09-16T03:46:22;3.33;;;1.37;;
13975;SDS011;7062;49.792;9.946;2022-09-16T03:48:50;6.27;;;2.00;;
13975;SDS011;7062;49.792;9.946;2022-09-16T03:51:16;4.23;;;1.83;;
13975;SDS011;7062;49.792;9.946;2022-09-16T03:53:41;3.70;;;2.87;;
13975;SDS011;7062;49.792;9.946;2022-09-16T03:56:07;2.40;;;1.53;;
13975;SDS011;7062;49.792;9.946;2022-09-16T03:58:32;3.57;;;1.73;;
13975;SDS011;7062;49.792;9.946;2022-09-16T04:00:58;3.37;;;1.83;;
13975;SDS011;7062;49.792;9.946;2022-09-16T04:03:24;3.20;;;1.63;;
13975;SDS011;7062;49.792;9.946;2022-09-16T04:05:53;2.90;;;1.40;;
13975;SDS011;7062;49.792;9.946;2022-09-16T04:08:19;3.13;;;2.00;;
13975;SDS011;7062;49.792;9.946;2022-09-16T04:10:55;4.07;;;1.83;;
13975;SDS011;7062;49.792;9.946;2022-09-16T04:13:23;4.63;;;2.17;;
13975;SDS011;7062;49.792;9.946;2022-09-16T04:15:49;3.27;;;1.40;;
13975;SDS011;7062;49.792;9.946;2022-09-16T04:18:16;5.47;;;1.43;;
13975;SDS011;7062;49.792;9.946;2022-09-16T04:20:42;3.93;;;1.60;;
13975;SDS011;7062;49.792;9.946;2022-09-16T04:23:07;1.57;;;1.30;;
13975;SDS011;7062;49.792;9.946;2022-09-16T04:25:33;6.17;;;1.27;;
13975;SDS011;7062;49.792;9.946;2022-09-16T04:27:59;1.20;;;1.10;;
13975;SDS011;7062;49.792;9.946;2022-09-16T04:30:25;4.67;;;1.67;;
13975;SDS011;7062;49.792;9.946;2022-09-16T04:32:54;4.33;;;1.50;;
13975;SDS011;7062;49.792;9.946;2022-09-16T04:35:21;3.60;;;2.03;;
13975;SDS011;7062;49.792;9.946;2022-09-16T04:37:47;2.50;;;1.43;;
13975;SDS011;7062;49.792;9.946;2022-09-16T04:40:13;4.37;;;1.47;;
13975;SDS011;7062;49.792;9.946;2022-09-16T04:42:40;5.27;;;1.63;;
13975;SDS011;7062;49.792;9.946;2022-09-16T04:45:06;2.07;;;1.37;;
13975;SDS011;7062;49.792;9.946;2022-09-16T04:47:32;3.47;;;1.80;;
13975;SDS011;7062;49.792;9.946;2022-09-16T04:49:57;4.47;;;1.57;;
13975;SDS011;7062;49.792;9.946;2022-09-16T04:52:23;4.20;;;1.47;;
13975;SDS011;7062;49.792;9.946;2022-09-16T04:54:49;6.43;;;1.43;;
13975;SDS011;7062;49.792;9.946;2022-09-16T04:57:14;3.63;;;1.60;;
13975;SDS011;7062;49.792;9.946;2022-09-16T04:59:40;6.77;;;1.30;;
13975;SDS011;7062;49.792;9.946;2022-09-16T05:02:05;6.10;;;1.40;;
13975;SDS011;7062;49.792;9.946;2022-09-16T05:04:31;3.90;;;1.07;;
13975;SDS011;7062;49.792;9.946;2022-09-16T05:06:57;4.77;;;1.00;;
13975;SDS011;7062;49.792;9.946;2022-09-16T05:09:22;5.80;;;1.60;;
13975;SDS011;7062;49.792;9.946;2022-09-16T05:11:48;6.33;;;1.40;;
13975;SDS011;7062;49.792;9.946;2022-09-16T05:14:14;5.00;;;1.40;;
13975;SDS011;7062;49.792;9.946;2022-09-16T05:16:42;3.33;;;1.03;;
13975;SDS011;7062;49.792;9.946;2022-09-16T05:19:12;4.47;;;1.23;;
13975;SDS011;7062;49.792;9.946;2022-09-16T05:21:38;4.57;;;1.30;;
13975;SDS011;7062;49.792;9.946;2022-09-16T05:24:06;3.73;;;1.30;;
13975;SDS011;7062;49.792;9.946;2022-09-16T05:26:34;1.23;;;0.87;;
13975;SDS011;7062;49.792;9.946;2022-09-16T05:29:02;2.47;;;1.30;;
13975;SDS011;7062;49.792;9.946;2022-09-16T05:31:31;2.27;;;1.20;;
13975;SDS011;7062;49.792;9.946;2022-09-16T05:33:59;1.33;;;0.90;;
13975;SDS011;7062;49.792;9.946;2022-09-16T05:36:35;3.27;;;1.70;;
13975;SDS011;7062;49.792;9.946;2022-09-16T05:39:03;4.47;;;1.70;;
13975;SDS011;7062;49.792;9.946;2022-09-16T05:41:28;3.97;;;1.77;;
13975;SDS011;7062;49.792;9.946;2022-09-16T05:43:57;3.07;;;1.17;;
13975;SDS011;7062;49.792;9.946;2022-09-16T05:46:23;5.13;;;1.13;;
13975;SDS011;7062;49.792;9.946;2022-09-16T05:48:49;4.97;;;1.43;;
13975;SDS011;7062;49.792;9.946;2022-09-16T05:51:16;5.10;;;1.67;;
13975;SDS011;7062;49.792;9.946;2022-09-16T05:53:43;2.43;;;1.30;;
13975;SDS011;7062;49.792;9.946;2022-09-16T05:56:11;2.87;;;1.20;;
13975;SDS011;7062;49.792;9.946;2022-09-16T05:58:41;2.37;;;0.90;;
13975;SDS011;7062;49.792;9.946;2022-09-16T06:01:11;5.37;;;1.20;;
13975;SDS011;7062;49.792;9.946;2022-09-16T06:03:39;6.03;;;1.43;;
13975;SDS011;7062;49.792;9.946;2022-09-16T06:06:10;3.87;;;1.13;;
13975;SDS011;7062;49.792;9.946;2022-09-16T06:08:57;6.90;;;1.33;;
13975;SDS011;7062;49.792;9.946;2022-09-16T06:11:25;2.30;;;1.10;;
13975;SDS011;7062;49.792;9.946;2022-09-16T06:13:58;2.33;;;1.17;;
13975;SDS011;7062;49.792;9.946;2022-09-16T06:16:25;2.63;;;1.20;;
13975;SDS011;7062;49.792;9.946;2022-09-16T06:18:53;3.13;;;1.80;;
13975;SDS011;7062;49.792;9.946;2022-09-16T06:21:19;5.13;;;2.10;;
13975;SDS011;7062;49.792;9.946;2022-09-16T06:23:46;3.90;;;1.37;;
13975;SDS011;7062;49.792;9.946;2022-09-16T06:26:13;3.17;;;1.00;;
13975;SDS011;7062;49.792;9.946;2022-09-16T06:28:40;3.10;;;1.73;;
13975;SDS011;7062;49.792;9.946;2022-09-16T06:31:07;4.83;;;1.73;;
13975;SDS011;7062;49.792;9.946;2022-09-16T06:33:40;7.03;;;1.00;;
13975;SDS011;7062;49.792;9.946;2022-09-16T06:36:08;3.93;;;1.20;;
13975;SDS011;7062;49.792;9.946;2022-09-16T06:38:42;4.80;;;1.07;;
13975;SDS011;7062;49.792;9.946;2022-09-16T06:41:09;8.57;;;1.13;;
13975;SDS011;7062;49.792;9.946;2022-09-16T06:43:36;2.50;;;1.00;;
13975;SDS011;7062;49.792;9.946;2022-09-16T06:46:06;2.53;;;1.33;;
13975;SDS011;7062;49.792;9.946;2022-09-16T06:48:37;6.90;;;1.77;;
13975;SDS011;7062;49.792;9.946;2022-09-16T06:51:06;6.90;;;1.57;;
13975;SDS011;7062;49.792;9.946;2022-09-16T06:53:34;4.93;;;1.90;;
13975;SDS011;7062;49.792;9.946;2022-09-16T06:56:04;6.10;;;1.80;;
13975;SDS011;7062;49.792;9.946;2022-09-16T06:58:32;5.17;;;2.60;;
13975;SDS011;7062;49.792;9.946;2022-09-16T07:01:09;5.00;;;2.17;;
13975;SDS011;7062;49.792;9.946;2022-09-16T07:03:39;4.10;;;1.70;;
13975;SDS011;7062;49.792;9.946;2022-09-16T07:06:07;4.43;;;1.60;;
13975;SDS011;7062;49.792;9.946;2022-09-16T07:08:34;4.83;;;1.37;;
13975;SDS011;7062;49.792;9.946;2022-09-16T07:11:01;7.90;;;1.70;;
13975;SDS011;7062;49.792;9.946;2022-09-16T07:13:32;6.07;;;3.77;;
13975;SDS011;7062;49.792;9.946;2022-09-16T07:15:58;3.13;;;1.97;;
13975;SDS011;7062;49.792;9.946;2022-09-16T07:18:25;4.33;;;1.70;;
13975;SDS011;7062;49.792;9.946;2022-09-16T07:20:52;10.57;;;1.63;;
13975;SDS011;7062;49.792;9.946;2022-09-16T07:23:17;4.60;;;1.40;;
13975;SDS011;7062;49.792;9.946;2022-09-16T07:25:43;6.10;;;1.70;;
13975;SDS011;7062;49.792;9.946;2022-09-16T07:28:09;4.27;;;1.10;;
13975;SDS011;7062;49.792;9.946;2022-09-16T07:30:35;6.27;;;1.10;;
13975;SDS011;7062;49.792;9.946;2022-09-16T07:33:01;5.23;;;1.80;;
13975;SDS011;7062;49.792;9.946;2022-09-16T07:35:26;2.60;;;1.00;;
13975;SDS011;7062;49.792;9.946;2022-09-16T07:37:52;3.60;;;1.10;;
13975;SDS011;7062;49.792;9.946;2022-09-16T07:40:17;4.87;;;1.40;;
13975;SDS011;7062;49.792;9.946;2022-09-16T07:42:43;3.63;;;1.00;;
13975;SDS011;7062;49.792;9.946;2022-09-16T07:45:09;4.70;;;1.40;;
13975;SDS011;7062;49.792;9.946;2022-09-16T07:47:34;2.47;;;1.17;;
13975;SDS011;7062;49.792;9.946;2022-09-16T07:50:00;6.07;;;1.30;;
13975;SDS011;7062;49.792;9.946;2022-09-16T07:52:26;5.43;;;1.43;;
13975;SDS011;7062;49.792;9.946;2022-09-16T07:54:56;3.60;;;1.60;;
13975;SDS011;7062;49.792;9.946;2022-09-16T07:57:22;4.50;;;1.67;;
13975;SDS011;7062;49.792;9.946;2022-09-16T07:59:49;5.20;;;2.30;;
13975;SDS011;7062;49.792;9.946;2022-09-16T08:02:14;3.43;;;1.13;;
13975;SDS011;7062;49.792;9.946;2022-09-16T08:04:41;3.10;;;0.93;;
13975;SDS011;7062;49.792;9.946;2022-09-16T08:07:07;5.07;;;1.20;;
13975;SDS011;7062;49.792;9.946;2022-09-16T08:09:32;5.57;;;1.53;;
13975;SDS011;7062;49.792;9.946;2022-09-16T08:12:00;3.87;;;1.43;;
13975;SDS011;7062;49.792;9.946;2022-09-16T08:14:27;3.03;;;1.10;;
13975;SDS011;7062;49.792;9.946;2022-09-16T08:16:52;3.17;;;1.10;;
13975;SDS011;7062;49.792;9.946;2022-09-16T08:19:18;6.43;;;1.13;;
13975;SDS011;7062;49.792;9.946;2022-09-16T08:21:45;2.80;;;1.00;;
13975;SDS011;7062;49.792;9.946;2022-09-16T08:24:10;5.03;;;1.20;;
13975;SDS011;7062;49.792;9.946;2022-09-16T08:26:36;3.27;;;1.00;;
13975;SDS011;7062;49.792;9.946;2022-09-16T08:29:02;3.70;;;1.30;;
13975;SDS011;7062;49.792;9.946;2022-09-16T08:31:27;3.53;;;1.50;;
13975;SDS011;7062;49.792;9.946;2022-09-16T08:33:53;2.27;;;1.03;;
13975;SDS011;7062;49.792;9.946;2022-09-16T08:36:20;4.73;;;1.50;;
13975;SDS011;7062;49.792;9.946;2022-09-16T08:38:48;2.33;;;1.17;;
13975;SDS011;7062;49.792;9.946;2022-09-16T08:43:53;3.20;;;0.97;;
13975;SDS011;7062;49.792;9.946;2022-09-16T08:46:44;3.93;;;1.30;;
13975;SDS011;7062;49.792;9.946;2022-09-16T08:52:37;3.00;;;1.57;;
13975;SDS011;7062;49.792;9.946;2022-09-16T08:55:01;4.27;;;1.10;;
13975;SDS011;7062;49.792;9.946;2022-09-16T08:57:40;6.43;;;2.00;;
13975;SDS011;7062;49.792;9.946;2022-09-16T09:00:13;7.17;;;2.60;;
13975;SDS011;7062;49.792;9.946;2022-09-16T09:02:45;2.60;;;1.20;;
13975;SDS011;7062;49.792;9.946;2022-09-16T09:05:44;2.33;;;1.27;;
13975;SDS011;7062;49.792;9.946;2022-09-16T09:16:07;1.80;;;1.30;;
13975;SDS011;7062;49.792;9.946;2022-09-16T09:19:06;1.23;;;0.80;;
13975;SDS011;7062;49.792;9.946;2022-09-16T09:22:04;2.20;;;1.07;;
13975;SDS011;7062;49.792;9.946;2022-09-16T09:27:16;3.93;;;1.20;;
13975;SDS011;7062;49.792;9.946;2022-09-16T09:29:55;4.87;;;1.10;;
13975;SDS011;7062;49.792;9.946;2022-09-16T09:43:22;2.67;;;1.20;;
13975;SDS011;7062;49.792;9.946;2022-09-16T09:45:57;3.27;;;0.97;;
13975;SDS011;7062;49.792;9.946;2022-09-16T09:54:33;3.63;;;1.53;;
13975;SDS011;7062;49.792;9.946;2022-09-16T09:57:01;6.43;;;1.27;;
13975;SDS011;7062;49.792;9.946;2022-09-16T10:02:20;3.13;;;1.20;;
13975;SDS011;7062;49.792;9.946;2022-09-16T10:04:46;2.77;;;1.10;;
13975;SDS011;7062;49.792;9.946;2022-09-16T10:07:13;5.03;;;1.37;;
13975;SDS011;7062;49.792;9.946;2022-09-16T10:09:52;1.63;;;1.03;;
13975;SDS011;7062;49.792;9.946;2022-09-16T10:14:53;4.00;;;1.10;;
13975;SDS011;7062;49.792;9.946;2022-09-16T10:17:19;2.13;;;0.93;;
13975;SDS011;7062;49.792;9.946;2022-09-16T10:22:32;6.17;;;1.27;;
13975;SDS011;7062;49.792;9.946;2022-09-16T10:25:00;2.77;;;1.10;;
13975;SDS011;7062;49.792;9.946;2022-09-16T10:27:29;1.90;;;1.00;;
13975;SDS011;7062;49.792;9.946;2022-09-16T10:32:44;5.80;;;1.10;;
13975;SDS011;7062;49.792;9.946;2022-09-16T10:35:18;2.53;;;1.00;;
13975;SDS011;7062;49.792;9.946;2022-09-16T10:37:50;2.77;;;0.87;;
13975;SDS011;7062;49.792;9.946;2022-09-16T10:40:27;2.57;;;0.93;;
13975;SDS011;7062;49.792;9.946;2022-09-16T10:42:56;2.20;;;1.03;;
13975;SDS011;7062;49.792;9.946;2022-09-16T10:45:28;3.63;;;1.20;;
13975;SDS011;7062;49.792;9.946;2022-09-16T10:47:59;4.13;;;1.40;;
13975;SDS011;7062;49.792;9.946;2022-09-16T10:50:28;5.47;;;1.43;;
13975;SDS011;7062;49.792;9.946;2022-09-16T10:52:53;4.70;;;1.23;;
13975;SDS011;7062;49.792;9.946;2022-09-16T10:55:26;4.23;;;1.13;;
13975;SDS011;7062;49.792;9.946;2022-09-16T10:58:05;2.10;;;1.13;;
13975;SDS011;7062;49.792;9.946;2022-09-16T11:00:34;2.17;;;1.10;;
13975;SDS011;7062;49.792;9.946;2022-09-16T11:06:08;5.10;;;1.03;;
13975;SDS011;7062;49.792;9.946;2022-09-16T11:08:58;2.27;;;0.93;;
13975;SDS011;7062;49.792;9.946;2022-09-16T11:12:04;1.43;;;0.93;;
13975;SDS011;7062;49.792;9.946;2022-09-16T11:14:59;3.10;;;0.70;;
13975;SDS011;7062;49.792;9.946;2022-09-16T11:20:29;1.90;;;0.70;;
13975;SDS011;7062;49.792;9.946;2022-09-16T11:31:52;5.43;;;1.00;;
13975;SDS011;7062;49.792;9.946;2022-09-16T11:37:28;5.07;;;1.47;;
13975;SDS011;7062;49.792;9.946;2022-09-16T11:40:21;2.07;;;1.00;;
13975;SDS011;7062;49.792;9.946;2022-09-16T11:45:57;3.27;;;1.10;;
13975;SDS011;7062;49.792;9.946;2022-09-16T11:48:56;2.57;;;0.90;;
13975;SDS011;7062;49.792;9.946;2022-09-16T11:56:47;3.70;;;0.97;;
13975;SDS011;7062;49.792;9.946;2022-09-16T11:59:29;3.40;;;1.47;;
13975;SDS011;7062;49.792;9.946;2022-09-16T12:02:24;2.70;;;0.80;;
13975;SDS011;7062;49.792;9.946;2022-09-16T12:07:44;2.10;;;0.90;;
13975;SDS011;7062;49.792;9.946;2022-09-16T12:12:57;3.90;;;0.90;;
13975;SDS011;7062;49.792;9.946;2022-09-16T12:15:33;2.60;;;0.90;;
13975;SDS011;7062;49.792;9.946;2022-09-16T12:18:38;2.60;;;1.03;;
13975;SDS011;7062;49.792;9.946;2022-09-16T12:23:50;2.93;;;0.70;;
13975;SDS011;7062;49.792;9.946;2022-09-16T12:26:47;1.63;;;0.87;;
13975;SDS011;7062;49.792;9.946;2022-09-16T12:32:13;1.97;;;0.70;;
13975;SDS011;7062;49.792;9.946;2022-09-16T12:34:48;3.47;;;0.90;;
13975;SDS011;7062;49.792;9.946;2022-09-16T12:37:39;2.67;;;0.90;;
13975;SDS011;7062;49.792;9.946;2022-09-16T12:40:27;4.47;;;0.90;;
13975;SDS011;7062;49.792;9.946;2022-09-16T12:54:50;2.00;;;0.90;;
13975;SDS011;7062;49.792;9.946;2022-09-16T13:03:43;3.50;;;0.67;;
13975;SDS011;7062;49.792;9.946;2022-09-16T13:08:56;1.97;;;0.37;;
13975;SDS011;7062;49.792;9.946;2022-09-16T13:11:51;1.87;;;0.70;;
13975;SDS011;7062;49.792;9.946;2022-09-16T13:14:20;2.60;;;0.70;;
13975;SDS011;7062;49.792;9.946;2022-09-16T13:16:53;1.93;;;0.50;;
13975;SDS011;7062;49.792;9.946;2022-09-16T13:21:48;2.10;;;0.60;;
13975;SDS011;7062;49.792;9.946;2022-09-16T13:24:39;4.43;;;1.30;;
13975;SDS011;7062;49.792;9.946;2022-09-16T13:27:32;2.10;;;0.80;;
13975;SDS011;7062;49.792;9.946;2022-09-16T13:35:48;0.93;;;0.63;;
13975;SDS011;7062;49.792;9.946;2022-09-16T13:40:37;4.47;;;0.90;;
13975;SDS011;7062;49.792;9.946;2022-09-16T13:43:12;1.83;;;0.80;;
13975;SDS011;7062;49.792;9.946;2022-09-16T13:45:44;1.17;;;0.40;;
13975;SDS011;7062;49.792;9.946;2022-09-16T13:48:17;1.50;;;0.53;;
13975;SDS011;7062;49.792;9.946;2022-09-16T13:50:49;2.47;;;0.50;;
13975;SDS011;7062;49.792;9.946;2022-09-16T13:53:38;0.87;;;0.40;;
13975;SDS011;7062;49.792;9.946;2022-09-16T14:04:49;0.67;;;0.33;;
13975;SDS011;7062;49.792;9.946;2022-09-16T14:10:34;1.80;;;0.50;;
13975;SDS011;7062;49.792;9.946;2022-09-16T14:13:10;1.93;;;0.40;;
13975;SDS011;7062;49.792;9.946;2022-09-16T14:15:41;1.60;;;0.50;;
13975;SDS011;7062;49.792;9.946;2022-09-16T14:18:13;0.67;;;0.40;;
13975;SDS011;7062;49.792;9.946;2022-09-16T14:23:25;1.13;;;0.30;;
13975;SDS011;7062;49.792;9.946;2022-09-16T14:25:51;3.43;;;0.77;;
13975;SDS011;7062;49.792;9.946;2022-09-16T14:28:18;1.97;;;0.53;;
13975;SDS011;7062;49.792;9.946;2022-09-16T14:31:05;2.37;;;0.57;;
13975;SDS011;7062;49.792;9.946;2022-09-16T14:33:36;2.43;;;0.67;;
13975;SDS011;7062;49.792;9.946;2022-09-16T14:36:17;1.97;;;0.60;;
13975;SDS011;7062;49.792;9.946;2022-09-16T14:38:57;1.90;;;0.60;;
13975;SDS011;7062;49.792;9.946;2022-09-16T14:41:29;1.33;;;0.40;;
13975;SDS011;7062;49.792;9.946;2022-09-16T14:44:00;0.97;;;0.30;;
13975;SDS011;7062;49.792;9.946;2022-09-16T14:46:53;6.70;;;0.50;;
13975;SDS011;7062;49.792;9.946;2022-09-16T14:49:22;1.57;;;0.40;;
13975;SDS011;7062;49.792;9.946;2022-09-16T14:51:55;1.27;;;0.33;;
13975;SDS011;7062;49.792;9.946;2022-09-16T14:54:23;0.97;;;0.20;;
13975;SDS011;7062;49.792;9.946;2022-09-16T14:59:25;0.83;;;0.20;;
13975;SDS011;7062;49.792;9.946;2022-09-16T15:01:53;0.30;;;0.20;;
13975;SDS011;7062;49.792;9.946;2022-09-16T15:04:27;0.50;;;0.50;;
13975;SDS011;7062;49.792;9.946;2022-09-16T15:06:58;0.70;;;0.20;;
13975;SDS011;7062;49.792;9.946;2022-09-16T15:09:36;1.70;;;0.37;;
13975;SDS011;7062;49.792;9.946;2022-09-16T15:12:12;0.10;;;0.10;;
13975;SDS011;7062;49.792;9.946;2022-09-16T15:14:44;0.93;;;0.17;;
13975;SDS011;7062;49.792;9.946;2022-09-16T15:17:13;0.80;;;0.50;;
13975;SDS011;7062;49.792;9.946;2022-09-16T15:19:43;0.90;;;0.30;;
13975;SDS011;7062;49.792;9.946;2022-09-16T15:22:15;1.47;;;0.90;;
13975;SDS011;7062;49.792;9.946;2022-09-16T15:24:41;0.23;;;0.10;;
13975;SDS011;7062;49.792;9.946;2022-09-16T15:27:07;1.07;;;0.20;;
13975;SDS011;7062;49.792;9.946;2022-09-16T15:29:34;0.50;;;0.20;;
13975;SDS011;7062;49.792;9.946;2022-09-16T15:32:14;0.83;;;0.23;;
13975;SDS011;7062;49.792;9.946;2022-09-16T15:37:43;0.30;;;0.20;;
13975;SDS011;7062;49.792;9.946;2022-09-16T15:40:09;0.73;;;0.20;;
13975;SDS011;7062;49.792;9.946;2022-09-16T15:42:43;0.73;;;0.30;;
13975;SDS011;7062;49.792;9.946;2022-09-16T15:45:14;1.77;;;0.30;;
13975;SDS011;7062;49.792;9.946;2022-09-16T15:47:55;1.17;;;0.30;;
13975;SDS011;7062;49.792;9.946;2022-09-16T15:50:27;3.23;;;0.40;;
13975;SDS011;7062;49.792;9.946;2022-09-16T15:53:05;1.60;;;0.40;;
13975;SDS011;7062;49.792;9.946;2022-09-16T15:55:40;0.20;;;0.20;;
13975;SDS011;7062;49.792;9.946;2022-09-16T15:58:17;0.53;;;0.40;;
13975;SDS011;7062;49.792;9.946;2022-09-16T16:06:09;0.57;;;0.20;;
13975;SDS011;7062;49.792;9.946;2022-09-16T16:08:51;1.27;;;0.50;;
13975;SDS011;7062;49.792;9.946;2022-09-16T16:11:19;2.07;;;0.50;;
13975;SDS011;7062;49.792;9.946;2022-09-16T16:13:47;0.77;;;0.23;;
13975;SDS011;7062;49.792;9.946;2022-09-16T16:16:15;2.00;;;0.40;;
13975;SDS011;7062;49.792;9.946;2022-09-16T16:18:42;0.20;;;0.20;;
13975;SDS011;7062;49.792;9.946;2022-09-16T16:21:13;0.33;;;0.33;;
13975;SDS011;7062;49.792;9.946;2022-09-16T16:23:40;1.27;;;0.30;;
13975;SDS011;7062;49.792;9.946;2022-09-16T16:26:07;0.60;;;0.30;;
13975;SDS011;7062;49.792;9.946;2022-09-16T16:28:33;1.27;;;0.27;;
13975;SDS011;7062;49.792;9.946;2022-09-16T16:31:10;1.20;;;0.40;;
13975;SDS011;7062;49.792;9.946;2022-09-16T16:33:43;1.70;;;0.50;;
13975;SDS011;7062;49.792;9.946;2022-09-16T16:36:14;1.10;;;0.57;;
13975;SDS011;7062;49.792;9.946;2022-09-16T16:38:43;2.10;;;1.90;;
13975;SDS011;7062;49.792;9.946;2022-09-16T16:41:10;0.83;;;0.43;;
13975;SDS011;7062;49.792;9.946;2022-09-16T16:43:37;1.07;;;0.70;;
13975;SDS011;7062;49.792;9.946;2022-09-16T16:46:03;1.27;;;0.40;;
13975;SDS011;7062;49.792;9.946;2022-09-16T16:48:29;0.70;;;0.37;;
13975;SDS011;7062;49.792;9.946;2022-09-16T16:53:26;0.97;;;0.30;;
13975;SDS011;7062;49.792;9.946;2022-09-16T16:55:52;1.67;;;0.40;;
13975;SDS011;7062;49.792;9.946;2022-09-16T16:58:18;1.13;;;0.30;;
13975;SDS011;7062;49.792;9.946;2022-09-16T17:00:44;1.47;;;0.53;;
13975;SDS011;7062;49.792;9.946;2022-09-16T17:03:12;0.27;;;0.23;;
13975;SDS011;7062;49.792;9.946;2022-09-16T17:05:39;1.67;;;0.47;;
13975;SDS011;7062;49.792;9.946;2022-09-16T17:08:05;0.63;;;0.27;;
13975;SDS011;7062;49.792;9.946;2022-09-16T17:10:30;0.87;;;0.40;;
13975;SDS011;7062;49.792;9.946;2022-09-16T17:12:56;0.80;;;0.50;;
13975;SDS011;7062;49.792;9.946;2022-09-16T17:15:22;0.90;;;0.67;;
13975;SDS011;7062;49.792;9.946;2022-09-16T17:17:49;1.13;;;0.47;;
13975;SDS011;7062;49.792;9.946;2022-09-16T17:20:15;0.73;;;0.40;;
13975;SDS011;7062;49.792;9.946;2022-09-16T17:22:43;2.30;;;0.60;;
13975;SDS011;7062;49.792;9.946;2022-09-16T17:25:09;0.83;;;0.47;;
13975;SDS011;7062;49.792;9.946;2022-09-16T17:27:34;1.67;;;0.63;;
13975;SDS011;7062;49.792;9.946;2022-09-16T17:30:00;0.77;;;0.50;;
13975;SDS011;7062;49.792;9.946;2022-09-16T17:32:26;0.70;;;0.33;;
13975;SDS011;7062;49.792;9.946;2022-09-16T17:34:52;0.50;;;0.30;;
13975;SDS011;7062;49.792;9.946;2022-09-16T17:37:17;1.67;;;0.60;;
13975;SDS011;7062;49.792;9.946;2022-09-16T17:39:44;0.70;;;0.43;;
13975;SDS011;7062;49.792;9.946;2022-09-16T17:42:09;1.50;;;0.30;;
13975;SDS011;7062;49.792;9.946;2022-09-16T17:44:35;1.60;;;0.50;;
13975;SDS011;7062;49.792;9.946;2022-09-16T17:47:01;0.47;;;0.40;;
13975;SDS011;7062;49.792;9.946;2022-09-16T17:49:27;3.10;;;0.40;;
13975;SDS011;7062;49.792;9.946;2022-09-16T17:51:53;3.90;;;0.60;;
13975;SDS011;7062;49.792;9.946;2022-09-16T17:54:18;0.30;;;0.27;;
13975;SDS011;7062;49.792;9.946;2022-09-16T17:56:45;0.50;;;0.50;;
13975;SDS011;7062;49.792;9.946;2022-09-16T17:59:11;1.87;;;0.90;;
13975;SDS011;7062;49.792;9.946;2022-09-16T18:01:39;1.73;;;0.50;;
13975;SDS011;7062;49.792;9.946;2022-09-16T18:04:05;0.60;;;0.60;;
13975;SDS011;7062;49.792;9.946;2022-09-16T18:06:32;0.83;;;0.70;;
13975;SDS011;7062;49.792;9.946;2022-09-16T18:09:02;1.67;;;0.57;;
13975;SDS011;7062;49.792;9.946;2022-09-16T18:11:29;0.67;;;0.60;;
13975;SDS011;7062;49.792;9.946;2022-09-16T18:13:58;1.20;;;0.50;;
13975;SDS011;7062;49.792;9.946;2022-09-16T18:16:25;1.27;;;0.60;;
13975;SDS011;7062;49.792;9.946;2022-09-16T18:18:53;1.30;;;0.60;;
13975;SDS011;7062;49.792;9.946;2022-09-16T18:21:21;0.67;;;0.43;;
13975;SDS011;7062;49.792;9.946;2022-09-16T18:23:51;0.60;;;0.60;;
13975;SDS011;7062;49.792;9.946;2022-09-16T18:26:18;0.43;;;0.37;;
13975;SDS011;7062;49.792;9.946;2022-09-16T18:28:45;1.27;;;0.57;;
13975;SDS011;7062;49.792;9.946;2022-09-16T18:31:16;0.90;;;0.50;;
13975;SDS011;7062;49.792;9.946;2022-09-16T18:33:49;3.63;;;0.53;;
13975;SDS011;7062;49.792;9.946;2022-09-16T18:36:18;1.93;;;0.50;;
13975;SDS011;7062;49.792;9.946;2022-09-16T18:38:48;1.20;;;0.57;;
13975;SDS011;7062;49.792;9.946;2022-09-16T18:41:18;0.80;;;0.50;;
13975;SDS011;7062;49.792;9.946;2022-09-16T18:43:52;0.60;;;0.50;;